sensor_id;sensor_type;location;lat;lon;timestamp;temperature;humidity
19017;DHT22;9641;51.494;6.670;2023-04-15T00:01:57;8.90;1.00
19017;DHT22;9641;51.494;6.670;2023-04-15T00:04:24;8.80;1.00
19017;DHT22;9641;51.494;6.670;2023-04-15T00:06:51;8.70;99.90
19017;DHT22;9641;51.494;6.670;2023-04-15T00:09:19;8.70;1.00
19017;DHT22;9641;51.494;6.670;2023-04-15T00:11:46;8.60;1.00
19017;DHT22;9641;51.494;6.670;2023-04-15T00:14:14;8.60;99.90
19017;DHT22;9641;51.494;6.670;2023-04-15T00:16:41;8.60;1.00
19017;DHT22;9641;51.494;6.670;2023-04-15T00:19:07;8.60;99.90
19017;DHT22;9641;51.494;6.670;2023-04-15T00:21:34;8.60;1.00
19017;DHT22;9641;51.494;6.670;2023-04-15T00:24:01;8.50;1.00
19017;DHT22;9641;51.494;6.670;2023-04-15T00:26:28;8.50;1.00
19017;DHT22;9641;51.494;6.670;2023-04-15T00:28:55;8.40;1.00
19017;DHT22;9641;51.494;6.670;2023-04-15T00:31:23;8.40;1.00
19017;DHT22;9641;51.494;6.670;2023-04-15T00:33:50;8.30;1.00
19017;DHT22;9641;51.494;6.670;2023-04-15T00:36:17;8.30;99.90
19017;DHT22;9641;51.494;6.670;2023-04-15T00:38:44;8.30;99.90
19017;DHT22;9641;51.494;6.670;2023-04-15T00:41:11;8.40;99.90
19017;DHT22;9641;51.494;6.670;2023-04-15T00:43:38;8.30;1.00
19017;DHT22;9641;51.494;6.670;2023-04-15T00:46:06;8.20;1.00
19017;DHT22;9641;51.494;6.670;2023-04-15T00:48:35;8.20;46.30
19017;DHT22;9641;51.494;6.670;2023-04-15T00:51:03;8.20;99.90
19017;DHT22;9641;51.494;6.670;2023-04-15T00:53:31;8.10;1.00
19017;DHT22;9641;51.494;6.670;2023-04-15T00:55:58;8.10;1.00
19017;DHT22;9641;51.494;6.670;2023-04-15T00:58:25;8.10;99.90
19017;DHT22;9641;51.494;6.670;2023-04-15T01:00:53;8.10;1.00
19017;DHT22;9641;51.494;6.670;2023-04-15T01:03:21;8.00;1.00
19017;DHT22;9641;51.494;6.670;2023-04-15T01:05:49;8.00;1.00
19017;DHT22;9641;51.494;6.670;2023-04-15T01:08:17;8.00;1.00
19017;DHT22;9641;51.494;6.670;2023-04-15T01:10:44;8.10;99.90
19017;DHT22;9641;51.494;6.670;2023-04-15T01:13:12;8.10;1.00
19017;DHT22;9641;51.494;6.670;2023-04-15T01:15:39;8.00;1.00
19017;DHT22;9641;51.494;6.670;2023-04-15T01:18:06;7.90;1.00
19017;DHT22;9641;51.494;6.670;2023-04-15T01:20:37;8.00;99.90
19017;DHT22;9641;51.494;6.670;2023-04-15T01:23:05;7.90;99.90
19017;DHT22;9641;51.494;6.670;2023-04-15T01:25:34;8.00;99.90
19017;DHT22;9641;51.494;6.670;2023-04-15T01:28:02;7.90;99.90
19017;DHT22;9641;51.494;6.670;2023-04-15T01:30:33;7.90;99.90
19017;DHT22;9641;51.494;6.670;2023-04-15T01:32:59;7.90;1.00
19017;DHT22;9641;51.494;6.670;2023-04-15T01:35:27;7.80;1.00
19017;DHT22;9641;51.494;6.670;2023-04-15T01:37:54;7.80;1.00
19017;DHT22;9641;51.494;6.670;2023-04-15T01:40:24;7.80;1.00
19017;DHT22;9641;51.494;6.670;2023-04-15T01:42:52;7.70;1.00
19017;DHT22;9641;51.494;6.670;2023-04-15T01:45:19;7.70;1.00
19017;DHT22;9641;51.494;6.670;2023-04-15T01:47:46;7.50;1.00
19017;DHT22;9641;51.494;6.670;2023-04-15T01:50:13;7.50;1.00
19017;DHT22;9641;51.494;6.670;2023-04-15T01:52:41;7.40;1.00
19017;DHT22;9641;51.494;6.670;2023-04-15T01:55:08;7.30;1.00
19017;DHT22;9641;51.494;6.670;2023-04-15T01:57:35;7.20;1.00
19017;DHT22;9641;51.494;6.670;2023-04-15T02:00:04;7.20;1.00
19017;DHT22;9641;51.494;6.670;2023-04-15T02:02:38;7.20;1.00
19017;DHT22;9641;51.494;6.670;2023-04-15T02:05:06;7.10;1.00
19017;DHT22;9641;51.494;6.670;2023-04-15T02:07:33;7.10;1.00
19017;DHT22;9641;51.494;6.670;2023-04-15T02:10:01;7.10;4.30
19017;DHT22;9641;51.494;6.670;2023-04-15T02:12:28;7.10;3.30
19017;DHT22;9641;51.494;6.670;2023-04-15T02:14:55;7.00;7.50
19017;DHT22;9641;51.494;6.670;2023-04-15T02:17:23;7.00;16.40
19017;DHT22;9641;51.494;6.670;2023-04-15T02:19:50;7.00;18.50
19017;DHT22;9641;51.494;6.670;2023-04-15T02:22:17;6.90;28.60
19017;DHT22;9641;51.494;6.670;2023-04-15T02:24:45;6.80;36.00
19017;DHT22;9641;51.494;6.670;2023-04-15T02:27:15;6.70;52.00
19017;DHT22;9641;51.494;6.670;2023-04-15T02:29:42;6.60;83.30
19017;DHT22;9641;51.494;6.670;2023-04-15T02:32:09;6.60;90.70
19017;DHT22;9641;51.494;6.670;2023-04-15T02:34:38;6.70;84.70
19017;DHT22;9641;51.494;6.670;2023-04-15T02:37:08;6.70;91.00
19017;DHT22;9641;51.494;6.670;2023-04-15T02:39:35;6.60;91.90
19017;DHT22;9641;51.494;6.670;2023-04-15T02:42:02;6.60;99.90
19017;DHT22;9641;51.494;6.670;2023-04-15T02:44:30;6.50;99.90
19017;DHT22;9641;51.494;6.670;2023-04-15T02:47:01;6.50;99.90
19017;DHT22;9641;51.494;6.670;2023-04-15T02:49:29;6.50;99.00
19017;DHT22;9641;51.494;6.670;2023-04-15T02:51:57;6.50;99.90
19017;DHT22;9641;51.494;6.670;2023-04-15T02:54:25;6.50;99.70
19017;DHT22;9641;51.494;6.670;2023-04-15T02:56:53;6.50;99.90
19017;DHT22;9641;51.494;6.670;2023-04-15T02:59:21;6.50;99.90
19017;DHT22;9641;51.494;6.670;2023-04-15T03:01:47;6.50;99.90
19017;DHT22;9641;51.494;6.670;2023-04-15T03:04:14;6.50;99.90
19017;DHT22;9641;51.494;6.670;2023-04-15T03:06:41;6.50;99.90
19017;DHT22;9641;51.494;6.670;2023-04-15T03:09:10;6.50;99.90
19017;DHT22;9641;51.494;6.670;2023-04-15T03:11:38;6.50;99.90
19017;DHT22;9641;51.494;6.670;2023-04-15T03:14:07;6.40;99.90
19017;DHT22;9641;51.494;6.670;2023-04-15T03:16:38;6.40;99.90
19017;DHT22;9641;51.494;6.670;2023-04-15T03:19:05;6.40;99.90
19017;DHT22;9641;51.494;6.670;2023-04-15T03:21:33;6.30;99.90
19017;DHT22;9641;51.494;6.670;2023-04-15T03:24:00;6.30;99.90
19017;DHT22;9641;51.494;6.670;2023-04-15T03:26:30;6.30;99.90
19017;DHT22;9641;51.494;6.670;2023-04-15T03:29:04;6.20;99.90
19017;DHT22;9641;51.494;6.670;2023-04-15T03:31:32;6.20;99.90
19017;DHT22;9641;51.494;6.670;2023-04-15T03:33:59;6.20;99.90
19017;DHT22;9641;51.494;6.670;2023-04-15T03:36:27;6.10;99.90
19017;DHT22;9641;51.494;6.670;2023-04-15T03:38:54;6.10;99.90
19017;DHT22;9641;51.494;6.670;2023-04-15T03:41:22;6.00;99.90
19017;DHT22;9641;51.494;6.670;2023-04-15T03:43:51;5.90;99.90
19017;DHT22;9641;51.494;6.670;2023-04-15T03:46:18;5.90;99.90
19017;DHT22;9641;51.494;6.670;2023-04-15T03:48:46;5.80;99.90
19017;DHT22;9641;51.494;6.670;2023-04-15T03:51:12;5.70;99.90
19017;DHT22;9641;51.494;6.670;2023-04-15T03:53:39;5.70;99.90
19017;DHT22;9641;51.494;6.670;2023-04-15T03:56:06;5.70;99.90
19017;DHT22;9641;51.494;6.670;2023-04-15T03:58:33;5.70;99.90
19017;DHT22;9641;51.494;6.670;2023-04-15T04:01:01;5.70;99.90
19017;DHT22;9641;51.494;6.670;2023-04-15T04:03:28;5.70;99.90
19017;DHT22;9641;51.494;6.670;2023-04-15T04:05:55;5.70;99.90
19017;DHT22;9641;51.494;6.670;2023-04-15T04:08:22;5.70;99.90
19017;DHT22;9641;51.494;6.670;2023-04-15T04:10:49;5.70;99.90
19017;DHT22;9641;51.494;6.670;2023-04-15T04:13:15;5.70;99.90
19017;DHT22;9641;51.494;6.670;2023-04-15T04:15:42;5.70;99.90
19017;DHT22;9641;51.494;6.670;2023-04-15T04:18:10;5.70;99.90
19017;DHT22;9641;51.494;6.670;2023-04-15T04:20:37;5.70;99.90
19017;DHT22;9641;51.494;6.670;2023-04-15T04:23:04;5.60;99.90
19017;DHT22;9641;51.494;6.670;2023-04-15T04:25:31;5.60;99.90
19017;DHT22;9641;51.494;6.670;2023-04-15T04:27:58;5.60;99.90
19017;DHT22;9641;51.494;6.670;2023-04-15T04:30:25;5.50;99.90
19017;DHT22;9641;51.494;6.670;2023-04-15T04:32:52;5.50;99.90
19017;DHT22;9641;51.494;6.670;2023-04-15T04:35:20;5.40;99.90
19017;DHT22;9641;51.494;6.670;2023-04-15T04:37:47;5.40;99.90
19017;DHT22;9641;51.494;6.670;2023-04-15T04:40:14;5.40;99.90
19017;DHT22;9641;51.494;6.670;2023-04-15T04:42:41;5.40;99.90
19017;DHT22;9641;51.494;6.670;2023-04-15T04:45:08;5.30;99.90
19017;DHT22;9641;51.494;6.670;2023-04-15T04:47:35;5.40;99.90
19017;DHT22;9641;51.494;6.670;2023-04-15T04:50:02;5.40;99.90
19017;DHT22;9641;51.494;6.670;2023-04-15T04:52:30;5.40;99.90
19017;DHT22;9641;51.494;6.670;2023-04-15T04:54:57;5.40;99.90
19017;DHT22;9641;51.494;6.670;2023-04-15T04:57:24;5.50;99.90
19017;DHT22;9641;51.494;6.670;2023-04-15T04:59:51;5.50;99.90
19017;DHT22;9641;51.494;6.670;2023-04-15T05:02:18;5.50;99.90
19017;DHT22;9641;51.494;6.670;2023-04-15T05:04:45;5.60;99.90
19017;DHT22;9641;51.494;6.670;2023-04-15T05:07:11;5.60;99.90
19017;DHT22;9641;51.494;6.670;2023-04-15T05:09:40;5.60;99.90
19017;DHT22;9641;51.494;6.670;2023-04-15T05:12:07;5.70;99.90
19017;DHT22;9641;51.494;6.670;2023-04-15T05:14:39;5.70;99.90
19017;DHT22;9641;51.494;6.670;2023-04-15T05:17:06;5.70;99.90
19017;DHT22;9641;51.494;6.670;2023-04-15T05:19:33;5.80;99.90
19017;DHT22;9641;51.494;6.670;2023-04-15T05:22:00;5.80;99.90
19017;DHT22;9641;51.494;6.670;2023-04-15T05:24:27;5.80;99.90
19017;DHT22;9641;51.494;6.670;2023-04-15T05:26:56;5.90;99.90
19017;DHT22;9641;51.494;6.670;2023-04-15T05:29:22;5.90;99.90
19017;DHT22;9641;51.494;6.670;2023-04-15T05:31:49;5.90;99.90
19017;DHT22;9641;51.494;6.670;2023-04-15T05:34:16;5.90;99.90
19017;DHT22;9641;51.494;6.670;2023-04-15T05:36:43;6.00;99.90
19017;DHT22;9641;51.494;6.670;2023-04-15T05:39:10;6.00;99.90
19017;DHT22;9641;51.494;6.670;2023-04-15T05:41:37;6.10;99.90
19017;DHT22;9641;51.494;6.670;2023-04-15T05:44:05;6.10;99.90
19017;DHT22;9641;51.494;6.670;2023-04-15T05:46:32;6.20;99.90
19017;DHT22;9641;51.494;6.670;2023-04-15T05:48:59;6.20;99.90
19017;DHT22;9641;51.494;6.670;2023-04-15T05:51:26;6.30;99.90
19017;DHT22;9641;51.494;6.670;2023-04-15T05:53:53;6.30;99.90
19017;DHT22;9641;51.494;6.670;2023-04-15T05:56:19;6.30;99.90
19017;DHT22;9641;51.494;6.670;2023-04-15T05:58:46;6.40;99.90
19017;DHT22;9641;51.494;6.670;2023-04-15T06:01:14;6.50;99.90
19017;DHT22;9641;51.494;6.670;2023-04-15T06:03:41;6.50;99.90
19017;DHT22;9641;51.494;6.670;2023-04-15T06:06:09;6.60;99.90
19017;DHT22;9641;51.494;6.670;2023-04-15T06:08:36;6.70;99.90
19017;DHT22;9641;51.494;6.670;2023-04-15T06:11:03;6.80;99.90
19017;DHT22;9641;51.494;6.670;2023-04-15T06:13:30;6.90;99.90
19017;DHT22;9641;51.494;6.670;2023-04-15T06:15:57;6.90;99.90
19017;DHT22;9641;51.494;6.670;2023-04-15T06:18:25;6.90;99.90
19017;DHT22;9641;51.494;6.670;2023-04-15T06:20:52;7.10;99.90
19017;DHT22;9641;51.494;6.670;2023-04-15T06:23:19;7.20;99.90
19017;DHT22;9641;51.494;6.670;2023-04-15T06:25:46;7.30;99.90
19017;DHT22;9641;51.494;6.670;2023-04-15T06:28:13;7.40;99.90
19017;DHT22;9641;51.494;6.670;2023-04-15T06:30:40;7.50;99.90
19017;DHT22;9641;51.494;6.670;2023-04-15T06:33:06;7.70;99.90
19017;DHT22;9641;51.494;6.670;2023-04-15T06:35:36;7.80;99.90
19017;DHT22;9641;51.494;6.670;2023-04-15T06:38:03;7.90;99.90
19017;DHT22;9641;51.494;6.670;2023-04-15T06:40:30;8.00;99.90
19017;DHT22;9641;51.494;6.670;2023-04-15T06:43:29;8.10;99.90
19017;DHT22;9641;51.494;6.670;2023-04-15T06:46:05;8.30;99.90
19017;DHT22;9641;51.494;6.670;2023-04-15T06:48:35;8.40;99.90
19017;DHT22;9641;51.494;6.670;2023-04-15T06:51:21;8.50;99.90
19017;DHT22;9641;51.494;6.670;2023-04-15T06:53:48;8.60;99.90
19017;DHT22;9641;51.494;6.670;2023-04-15T06:56:15;8.60;99.90
19017;DHT22;9641;51.494;6.670;2023-04-15T06:58:43;8.70;99.90
19017;DHT22;9641;51.494;6.670;2023-04-15T07:01:11;8.80;99.90
19017;DHT22;9641;51.494;6.670;2023-04-15T07:03:38;8.90;97.00
19017;DHT22;9641;51.494;6.670;2023-04-15T07:06:06;9.00;92.30
19017;DHT22;9641;51.494;6.670;2023-04-15T07:08:35;9.20;44.50
19017;DHT22;9641;51.494;6.670;2023-04-15T07:11:02;9.30;53.20
19017;DHT22;9641;51.494;6.670;2023-04-15T07:13:31;9.50;27.00
19017;DHT22;9641;51.494;6.670;2023-04-15T07:15:58;9.60;1.00
19017;DHT22;9641;51.494;6.670;2023-04-15T07:18:28;9.70;1.00
19017;DHT22;9641;51.494;6.670;2023-04-15T07:20:55;9.80;1.00
19017;DHT22;9641;51.494;6.670;2023-04-15T07:23:22;10.00;1.00
19017;DHT22;9641;51.494;6.670;2023-04-15T07:25:52;10.10;1.00
19017;DHT22;9641;51.494;6.670;2023-04-15T07:28:19;10.10;1.00
19017;DHT22;9641;51.494;6.670;2023-04-15T07:30:48;10.20;1.00
19017;DHT22;9641;51.494;6.670;2023-04-15T07:33:18;10.40;1.00
19017;DHT22;9641;51.494;6.670;2023-04-15T07:35:45;10.60;1.00
19017;DHT22;9641;51.494;6.670;2023-04-15T07:38:12;10.60;61.70
19017;DHT22;9641;51.494;6.670;2023-04-15T07:40:39;10.70;1.00
19017;DHT22;9641;51.494;6.670;2023-04-15T07:43:08;10.70;99.90
19017;DHT22;9641;51.494;6.670;2023-04-15T07:45:38;10.70;99.90
19017;DHT22;9641;51.494;6.670;2023-04-15T07:48:05;10.90;1.00
19017;DHT22;9641;51.494;6.670;2023-04-15T07:50:32;11.00;1.00
19017;DHT22;9641;51.494;6.670;2023-04-15T07:53:00;10.90;99.90
19017;DHT22;9641;51.494;6.670;2023-04-15T07:55:27;10.90;99.90
19017;DHT22;9641;51.494;6.670;2023-04-15T07:57:57;10.90;99.90
19017;DHT22;9641;51.494;6.670;2023-04-15T08:00:26;10.90;1.00
19017;DHT22;9641;51.494;6.670;2023-04-15T08:02:55;11.00;1.00
19017;DHT22;9641;51.494;6.670;2023-04-15T08:05:24;11.00;1.00
19017;DHT22;9641;51.494;6.670;2023-04-15T08:07:51;11.10;1.00
19017;DHT22;9641;51.494;6.670;2023-04-15T08:10:18;11.20;1.00
19017;DHT22;9641;51.494;6.670;2023-04-15T08:12:45;11.10;1.00
19017;DHT22;9641;51.494;6.670;2023-04-15T08:15:14;11.10;1.00
19017;DHT22;9641;51.494;6.670;2023-04-15T08:17:42;11.10;1.00
19017;DHT22;9641;51.494;6.670;2023-04-15T08:20:10;11.10;99.90
19017;DHT22;9641;51.494;6.670;2023-04-15T08:22:37;11.00;1.00
19017;DHT22;9641;51.494;6.670;2023-04-15T08:25:05;11.00;99.90
19017;DHT22;9641;51.494;6.670;2023-04-15T08:27:33;11.10;99.90
19017;DHT22;9641;51.494;6.670;2023-04-15T08:30:00;11.40;1.00
19017;DHT22;9641;51.494;6.670;2023-04-15T08:32:28;11.50;1.00
19017;DHT22;9641;51.494;6.670;2023-04-15T08:34:57;11.40;1.00
19017;DHT22;9641;51.494;6.670;2023-04-15T08:37:25;11.40;1.00
19017;DHT22;9641;51.494;6.670;2023-04-15T08:39:52;11.50;64.80
19017;DHT22;9641;51.494;6.670;2023-04-15T08:42:26;11.60;1.00
19017;DHT22;9641;51.494;6.670;2023-04-15T08:44:58;11.60;1.00
19017;DHT22;9641;51.494;6.670;2023-04-15T08:47:29;11.80;1.00
19017;DHT22;9641;51.494;6.670;2023-04-15T08:49:58;11.90;1.00
19017;DHT22;9641;51.494;6.670;2023-04-15T08:52:26;11.80;1.00
19017;DHT22;9641;51.494;6.670;2023-04-15T08:54:55;11.90;1.00
19017;DHT22;9641;51.494;6.670;2023-04-15T08:57:24;11.90;1.00
19017;DHT22;9641;51.494;6.670;2023-04-15T08:59:52;11.90;99.90
19017;DHT22;9641;51.494;6.670;2023-04-15T09:02:20;11.90;99.90
19017;DHT22;9641;51.494;6.670;2023-04-15T09:04:47;11.90;99.90
19017;DHT22;9641;51.494;6.670;2023-04-15T09:07:16;11.90;99.90
19017;DHT22;9641;51.494;6.670;2023-04-15T09:09:43;12.00;99.90
19017;DHT22;9641;51.494;6.670;2023-04-15T09:12:10;12.10;1.00
19017;DHT22;9641;51.494;6.670;2023-04-15T09:14:39;12.00;1.00
19017;DHT22;9641;51.494;6.670;2023-04-15T09:17:09;12.10;99.90
19017;DHT22;9641;51.494;6.670;2023-04-15T09:19:36;12.10;99.90
19017;DHT22;9641;51.494;6.670;2023-04-15T09:22:03;12.00;99.90
19017;DHT22;9641;51.494;6.670;2023-04-15T09:24:37;12.10;99.90
19017;DHT22;9641;51.494;6.670;2023-04-15T09:27:05;12.20;1.00
19017;DHT22;9641;51.494;6.670;2023-04-15T09:29:32;12.20;99.90
19017;DHT22;9641;51.494;6.670;2023-04-15T09:32:09;12.20;99.90
19017;DHT22;9641;51.494;6.670;2023-04-15T09:34:36;12.20;99.90
19017;DHT22;9641;51.494;6.670;2023-04-15T09:37:03;12.40;99.90
19017;DHT22;9641;51.494;6.670;2023-04-15T09:39:46;12.20;21.80
19017;DHT22;9641;51.494;6.670;2023-04-15T09:42:14;12.00;99.90
19017;DHT22;9641;51.494;6.670;2023-04-15T09:44:42;11.90;1.00
19017;DHT22;9641;51.494;6.670;2023-04-15T09:47:26;12.00;1.00
19017;DHT22;9641;51.494;6.670;2023-04-15T09:49:57;12.20;1.00
19017;DHT22;9641;51.494;6.670;2023-04-15T09:52:24;12.40;99.90
19017;DHT22;9641;51.494;6.670;2023-04-15T09:54:54;12.50;99.90
19017;DHT22;9641;51.494;6.670;2023-04-15T09:57:21;12.50;99.90
19017;DHT22;9641;51.494;6.670;2023-04-15T09:59:49;12.50;1.00
19017;DHT22;9641;51.494;6.670;2023-04-15T10:02:17;12.40;1.00
19017;DHT22;9641;51.494;6.670;2023-04-15T10:04:47;12.70;99.90
19017;DHT22;9641;51.494;6.670;2023-04-15T10:07:14;12.70;99.90
19017;DHT22;9641;51.494;6.670;2023-04-15T10:09:45;12.70;99.90
19017;DHT22;9641;51.494;6.670;2023-04-15T10:12:15;12.70;99.90
19017;DHT22;9641;51.494;6.670;2023-04-15T10:14:43;12.60;1.00
19017;DHT22;9641;51.494;6.670;2023-04-15T10:17:11;12.70;99.90
19017;DHT22;9641;51.494;6.670;2023-04-15T10:19:46;12.90;99.90
19017;DHT22;9641;51.494;6.670;2023-04-15T10:22:18;13.10;21.00
19017;DHT22;9641;51.494;6.670;2023-04-15T10:24:46;13.40;1.00
19017;DHT22;9641;51.494;6.670;2023-04-15T10:27:16;13.60;1.00
19017;DHT22;9641;51.494;6.670;2023-04-15T10:29:43;13.50;1.00
19017;DHT22;9641;51.494;6.670;2023-04-15T10:32:11;13.40;1.00
19017;DHT22;9641;51.494;6.670;2023-04-15T10:34:39;13.20;1.00
19017;DHT22;9641;51.494;6.670;2023-04-15T10:37:08;13.20;1.00
19017;DHT22;9641;51.494;6.670;2023-04-15T10:39:43;13.00;1.00
19017;DHT22;9641;51.494;6.670;2023-04-15T10:42:11;13.30;1.00
19017;DHT22;9641;51.494;6.670;2023-04-15T10:44:41;13.40;1.00
19017;DHT22;9641;51.494;6.670;2023-04-15T10:47:13;13.20;1.00
19017;DHT22;9641;51.494;6.670;2023-04-15T10:49:47;13.20;1.00
19017;DHT22;9641;51.494;6.670;2023-04-15T10:52:15;13.30;1.00
19017;DHT22;9641;51.494;6.670;2023-04-15T10:54:43;13.30;1.00
19017;DHT22;9641;51.494;6.670;2023-04-15T10:57:15;13.10;1.00
19017;DHT22;9641;51.494;6.670;2023-04-15T11:00:09;13.20;88.50
19017;DHT22;9641;51.494;6.670;2023-04-15T11:02:45;13.40;1.00
19017;DHT22;9641;51.494;6.670;2023-04-15T11:05:13;13.90;1.00
19017;DHT22;9641;51.494;6.670;2023-04-15T11:07:47;13.80;1.00
19017;DHT22;9641;51.494;6.670;2023-04-15T11:13:28;13.00;1.00
19017;DHT22;9641;51.494;6.670;2023-04-15T11:16:00;13.00;99.90
19017;DHT22;9641;51.494;6.670;2023-04-15T11:18:29;13.10;99.90
19017;DHT22;9641;51.494;6.670;2023-04-15T11:21:02;13.00;99.90
19017;DHT22;9641;51.494;6.670;2023-04-15T11:23:36;12.90;1.00
19017;DHT22;9641;51.494;6.670;2023-04-15T11:26:05;13.20;99.90
19017;DHT22;9641;51.494;6.670;2023-04-15T11:28:35;12.90;99.90
19017;DHT22;9641;51.494;6.670;2023-04-15T11:31:08;12.60;99.90
19017;DHT22;9641;51.494;6.670;2023-04-15T11:33:37;12.70;1.00
19017;DHT22;9641;51.494;6.670;2023-04-15T11:36:04;12.70;1.00
19017;DHT22;9641;51.494;6.670;2023-04-15T11:38:33;13.00;1.00
19017;DHT22;9641;51.494;6.670;2023-04-15T11:41:01;13.30;1.00
19017;DHT22;9641;51.494;6.670;2023-04-15T11:43:31;13.30;1.00
19017;DHT22;9641;51.494;6.670;2023-04-15T11:46:01;13.50;1.00
19017;DHT22;9641;51.494;6.670;2023-04-15T11:48:34;13.50;1.00
19017;DHT22;9641;51.494;6.670;2023-04-15T11:51:03;13.20;1.00
19017;DHT22;9641;51.494;6.670;2023-04-15T11:53:38;13.10;1.00
19017;DHT22;9641;51.494;6.670;2023-04-15T11:56:07;12.90;26.90
19017;DHT22;9641;51.494;6.670;2023-04-15T11:58:36;12.90;99.90
19017;DHT22;9641;51.494;6.670;2023-04-15T12:01:04;13.00;1.00
19017;DHT22;9641;51.494;6.670;2023-04-15T12:03:38;12.90;99.90
19017;DHT22;9641;51.494;6.670;2023-04-15T12:06:07;12.60;1.00
19017;DHT22;9641;51.494;6.670;2023-04-15T12:08:57;12.60;1.00
19017;DHT22;9641;51.494;6.670;2023-04-15T12:11:30;12.50;1.00
19017;DHT22;9641;51.494;6.670;2023-04-15T12:14:01;12.60;1.00
19017;DHT22;9641;51.494;6.670;2023-04-15T12:16:28;12.70;99.90
19017;DHT22;9641;51.494;6.670;2023-04-15T12:18:58;12.60;99.90
19017;DHT22;9641;51.494;6.670;2023-04-15T12:21:27;12.40;99.90
19017;DHT22;9641;51.494;6.670;2023-04-15T12:23:56;12.50;1.00
19017;DHT22;9641;51.494;6.670;2023-04-15T12:26:27;12.70;1.00
19017;DHT22;9641;51.494;6.670;2023-04-15T12:28:55;12.80;99.90
19017;DHT22;9641;51.494;6.670;2023-04-15T12:31:22;12.90;1.00
19017;DHT22;9641;51.494;6.670;2023-04-15T12:33:49;13.20;1.00
19017;DHT22;9641;51.494;6.670;2023-04-15T12:36:18;13.30;1.00
19017;DHT22;9641;51.494;6.670;2023-04-15T12:38:45;13.10;1.00
19017;DHT22;9641;51.494;6.670;2023-04-15T12:41:12;12.90;99.90
19017;DHT22;9641;51.494;6.670;2023-04-15T12:43:39;12.90;99.90
19017;DHT22;9641;51.494;6.670;2023-04-15T12:46:07;12.80;1.00
19017;DHT22;9641;51.494;6.670;2023-04-15T12:48:34;12.50;1.00
19017;DHT22;9641;51.494;6.670;2023-04-15T12:51:02;12.40;1.00
19017;DHT22;9641;51.494;6.670;2023-04-15T12:53:30;12.50;94.30
19017;DHT22;9641;51.494;6.670;2023-04-15T12:55:57;12.50;1.00
19017;DHT22;9641;51.494;6.670;2023-04-15T12:58:24;12.40;54.80
19017;DHT22;9641;51.494;6.670;2023-04-15T13:00:52;12.40;99.90
19017;DHT22;9641;51.494;6.670;2023-04-15T13:03:19;12.40;1.00
19017;DHT22;9641;51.494;6.670;2023-04-15T13:05:46;12.60;99.90
19017;DHT22;9641;51.494;6.670;2023-04-15T13:08:13;12.70;99.90
19017;DHT22;9641;51.494;6.670;2023-04-15T13:10:42;12.60;1.00
19017;DHT22;9641;51.494;6.670;2023-04-15T13:13:09;12.40;1.00
19017;DHT22;9641;51.494;6.670;2023-04-15T13:15:36;12.20;1.00
19017;DHT22;9641;51.494;6.670;2023-04-15T13:18:05;12.10;1.00
19017;DHT22;9641;51.494;6.670;2023-04-15T13:20:33;12.10;99.90
19017;DHT22;9641;51.494;6.670;2023-04-15T13:23:00;12.10;99.90
19017;DHT22;9641;51.494;6.670;2023-04-15T13:25:27;12.10;54.70
19017;DHT22;9641;51.494;6.670;2023-04-15T13:27:56;12.20;99.90
19017;DHT22;9641;51.494;6.670;2023-04-15T13:30:23;12.20;99.90
19017;DHT22;9641;51.494;6.670;2023-04-15T13:32:50;12.30;99.90
19017;DHT22;9641;51.494;6.670;2023-04-15T13:35:18;12.30;99.90
19017;DHT22;9641;51.494;6.670;2023-04-15T13:37:46;12.20;99.90
19017;DHT22;9641;51.494;6.670;2023-04-15T13:40:13;12.20;1.00
19017;DHT22;9641;51.494;6.670;2023-04-15T13:42:41;11.90;99.90
19017;DHT22;9641;51.494;6.670;2023-04-15T13:45:10;11.90;1.00
19017;DHT22;9641;51.494;6.670;2023-04-15T13:47:37;11.90;1.00
19017;DHT22;9641;51.494;6.670;2023-04-15T13:50:05;12.00;1.00
19017;DHT22;9641;51.494;6.670;2023-04-15T13:52:32;12.00;99.90
19017;DHT22;9641;51.494;6.670;2023-04-15T13:54:59;12.00;1.00
19017;DHT22;9641;51.494;6.670;2023-04-15T13:57:26;11.90;1.00
19017;DHT22;9641;51.494;6.670;2023-04-15T13:59:53;11.90;99.90
19017;DHT22;9641;51.494;6.670;2023-04-15T14:02:22;11.80;1.00
19017;DHT22;9641;51.494;6.670;2023-04-15T14:04:49;11.80;1.00
19017;DHT22;9641;51.494;6.670;2023-04-15T14:07:16;11.80;99.90
19017;DHT22;9641;51.494;6.670;2023-04-15T14:09:43;11.70;1.00
19017;DHT22;9641;51.494;6.670;2023-04-15T14:12:10;11.80;1.00
19017;DHT22;9641;51.494;6.670;2023-04-15T14:14:37;11.90;1.00
19017;DHT22;9641;51.494;6.670;2023-04-15T14:17:04;12.00;99.90
19017;DHT22;9641;51.494;6.670;2023-04-15T14:19:34;12.10;1.00
19017;DHT22;9641;51.494;6.670;2023-04-15T14:22:01;12.20;1.00
19017;DHT22;9641;51.494;6.670;2023-04-15T14:24:28;12.20;1.00
19017;DHT22;9641;51.494;6.670;2023-04-15T14:26:55;12.30;99.90
19017;DHT22;9641;51.494;6.670;2023-04-15T14:29:22;12.20;1.00
19017;DHT22;9641;51.494;6.670;2023-04-15T14:31:49;12.00;1.00
19017;DHT22;9641;51.494;6.670;2023-04-15T14:34:17;11.80;99.90
19017;DHT22;9641;51.494;6.670;2023-04-15T14:36:57;11.70;1.00
19017;DHT22;9641;51.494;6.670;2023-04-15T14:39:24;11.60;99.90
19017;DHT22;9641;51.494;6.670;2023-04-15T14:41:52;11.60;1.00
19017;DHT22;9641;51.494;6.670;2023-04-15T14:44:18;11.60;99.90
19017;DHT22;9641;51.494;6.670;2023-04-15T14:46:46;11.60;1.00
19017;DHT22;9641;51.494;6.670;2023-04-15T14:49:13;11.60;1.00
19017;DHT22;9641;51.494;6.670;2023-04-15T14:51:40;11.60;99.90
19017;DHT22;9641;51.494;6.670;2023-04-15T14:54:09;11.60;99.90
19017;DHT22;9641;51.494;6.670;2023-04-15T14:56:37;11.60;1.00
19017;DHT22;9641;51.494;6.670;2023-04-15T14:59:04;11.70;1.00
19017;DHT22;9641;51.494;6.670;2023-04-15T15:01:32;11.70;99.90
19017;DHT22;9641;51.494;6.670;2023-04-15T15:03:59;11.70;1.00
19017;DHT22;9641;51.494;6.670;2023-04-15T15:06:26;11.60;1.00
19017;DHT22;9641;51.494;6.670;2023-04-15T15:08:53;11.60;1.00
19017;DHT22;9641;51.494;6.670;2023-04-15T15:11:22;11.80;99.90
19017;DHT22;9641;51.494;6.670;2023-04-15T15:13:49;11.50;1.00
19017;DHT22;9641;51.494;6.670;2023-04-15T15:16:16;11.30;1.00
19017;DHT22;9641;51.494;6.670;2023-04-15T15:18:43;11.20;99.90
19017;DHT22;9641;51.494;6.670;2023-04-15T15:21:10;11.20;99.90
19017;DHT22;9641;51.494;6.670;2023-04-15T15:23:37;11.30;1.00
19017;DHT22;9641;51.494;6.670;2023-04-15T15:26:04;11.40;1.00
19017;DHT22;9641;51.494;6.670;2023-04-15T15:28:33;11.50;1.00
19017;DHT22;9641;51.494;6.670;2023-04-15T15:31:00;11.60;99.90
19017;DHT22;9641;51.494;6.670;2023-04-15T15:33:27;11.70;1.00
19017;DHT22;9641;51.494;6.670;2023-04-15T15:35:54;11.60;99.90
19017;DHT22;9641;51.494;6.670;2023-04-15T15:38:21;11.60;1.00
19017;DHT22;9641;51.494;6.670;2023-04-15T15:40:48;11.40;99.90
19017;DHT22;9641;51.494;6.670;2023-04-15T15:43:16;11.30;97.90
19017;DHT22;9641;51.494;6.670;2023-04-15T15:45:44;11.10;99.90
19017;DHT22;9641;51.494;6.670;2023-04-15T15:48:12;10.90;99.90
19017;DHT22;9641;51.494;6.670;2023-04-15T15:50:39;10.80;99.90
19017;DHT22;9641;51.494;6.670;2023-04-15T15:53:06;10.80;1.00
19017;DHT22;9641;51.494;6.670;2023-04-15T15:55:33;10.70;1.00
19017;DHT22;9641;51.494;6.670;2023-04-15T15:58:00;10.70;1.00
19017;DHT22;9641;51.494;6.670;2023-04-15T16:00:27;10.70;99.90
19017;DHT22;9641;51.494;6.670;2023-04-15T16:02:56;10.80;99.90
19017;DHT22;9641;51.494;6.670;2023-04-15T16:05:23;10.80;1.00
19017;DHT22;9641;51.494;6.670;2023-04-15T16:07:50;10.80;23.20
19017;DHT22;9641;51.494;6.670;2023-04-15T16:10:17;10.80;1.00